Strona główna
METAR-TAF:

METAR-TAF

Lotnisko :

Béziers, Francja

Szerokość geograficzna: 43-19N, Długość geograficzna: 003-21E, wysokość: 17 m

Aktualna obserwacja pogody

Raport powstał 18 minut temu, godzina 08:30 UTC
Wiatr 13 kt od zachód
Temperatura 9°C
Wilgotność 76%
Ciśnienie 1017 hPa
Widzialność 10 km lub więcej
Brak chmur poniżej 1500 m i brak chmur cumulonimbus

METAR: LFMU 250830Z AUTO 26013KT CAVOK 09/05 Q1017 NOSIG

czas: 09:48 (08:48 UTC)

Prognoza

Raport powstał 48 minut temu, godzina 08:00 UTC
Prognoza ważna od 25 godzina 09 UTC do 26 godzina 09 UTC
Wiatr 10 kt od zachód
Widzialność 10 km lub więcej
Brak chmur poniżej 1500 m i brak chmur cumulonimbus
Przejściowo
od 25 godzina 21 UTC do 26 godzina 09 UTC
Wiatr 30 kt od zachód w porywach dochodzący do 40 kt

TAF: LFMU 250800Z 2509/2609 28010KT CAVOK TEMPO 2521/2609 28030G40KT

Obserwacja i prognoza pogody dla ponad 4000 lotnisk (raport METAR i TAF).

Dostępne stacje oznaczono żółtymi i czerwonymi punktami na mapie.

Najedź kursorem aby zobaczyć nazwę stacji.

Kliknij aby zobaczyć obserwacje i prognozy pogody.

Aby zmienić mapę: kliknij na zielony przycisk z czarnym krzyżykiem, aby powiększyć; na zielony przycisk z myślnikiem, aby pomniejszyć; na zielone strzałki, aby przejść do map sąsiednich.


METAR-TAF: